Due to severe server failure at the provider, not all demo sites are operational. Will take some days to rebuilt everything.

Demonstration site - Click on the  for more information

This is an optional block. Switch it on/off in your settings-file: $SITE['bannerTop'] = false; or $SITE['bannerBottom'] = false;

You can display ads, any other important text or photo’s using text / html or PHP code.

You can place one or more at the top and or bottom and it can all be different for content / size .



Visit our other weather sites:

Template documentation
and downloads

And another site



Earthquakes in the past 7 days

Earthquakes in the past 7 days of magnitude 2.0 or greater within 15000 km
Update time = 30-11-2020 15:01

Epicenter Near Magnitude Distance to Epicenter Local Time Link
Puerto Rico region 2.9 0071657165 km 160674338430-11-2020 13:36 map
5 km SW of Volcano, Hawaii 3.2 01195111951 km 160673796730-11-2020 12:06 map
5 km SW of Volcano, Hawaii 2.1 01195111951 km 160673759930-11-2020 11:59 map
28 km SSE of Mina, Nevada 2.9 0086358635 km 160673708330-11-2020 11:51 map
29 km SSE of Denali National Park, Alaska 2.3 0071467146 km 160673699730-11-2020 11:49 map
16 km WSW of Las Salinas, Dominican Republic 4.6 0074597459 km 160673476130-11-2020 11:12 map
70 km SW of Kaktovik, Alaska 3.1 0063846384 km 160673474030-11-2020 11:12 map
33 km NE of Benton, California 2.5 0086578657 km 160673421230-11-2020 11:03 map
19 km S of Pa‘auilo, Hawaii 2.8 01190511905 km 160673411530-11-2020 11:01 map
42 km SSE of Circle, Alaska 2.6 0067996799 km 160673392630-11-2020 10:58 map
109 km E of Circle, Alaska 2.3 0067076707 km 160673323630-11-2020 10:47 map
34 km NE of Benton, California 2.9 0086568656 km 160673192630-11-2020 10:25 map
64 km NNE of Karluk, Alaska 2.4 0077407740 km 160673002330-11-2020 09:53 map
14 km SW of Healy, Alaska 2.0 0070627062 km 160672968230-11-2020 09:48 map
Puerto Rico region 2.6 0071667166 km 160672854730-11-2020 09:29 map
3 km S of Pāhala, Hawaii 2.1 01198211982 km 160672622430-11-2020 08:50 map
6 km S of Maria Antonia, Puerto Rico 2.3 0071617161 km 160672620530-11-2020 08:50 map
0 km NW of Guayanilla, Puerto Rico 2.1 0071477147 km 160672549630-11-2020 08:38 map
15 km NNW of Stanley, Idaho 2.7 0079277927 km 160672189430-11-2020 07:38 map
6 km WSW of Guánica, Puerto Rico 2.1 0071657165 km 160672055630-11-2020 07:15 map
3 km SW of Indios, Puerto Rico 3.0 0071547154 km 160671784930-11-2020 06:30 map
35 km SE of Seldovia, Alaska 2.1 0075767576 km 160671693830-11-2020 06:15 map
105 km NNE of Calama, Chile 4.4 01072510725 km 160671632830-11-2020 06:05 map
1 km ENE of Indios, Puerto Rico 2.3 0071497149 km 160671608130-11-2020 06:01 map
15 km NNW of Stanley, Idaho 2.8 0079267926 km 160671513130-11-2020 05:45 map
1 km SE of Guánica, Puerto Rico 2.2 0071597159 km 160671285030-11-2020 05:07 map
26 km E of Nikolski, Alaska 5.4 0084578457 km 160671235130-11-2020 04:59 map
12 km SW of Toms Place, CA 2.7 0087358735 km 160671204630-11-2020 04:54 map
5 km SW of Volcano, Hawaii 2.1 01195111951 km 160671099330-11-2020 04:36 map
59 km NNE of Karluk, Alaska 2.8 0077457745 km 160671014830-11-2020 04:22 map
21 km SSE of Guánica, Puerto Rico 2.2 0071697169 km 160671014430-11-2020 04:22 map
19 km WNW of Stanley, Idaho 2.8 0079367936 km 160670705930-11-2020 03:30 map
8 km SW of Volcano, Hawaii 2.0 01195311953 km 160670517430-11-2020 02:59 map
Central Alaska 2.1 0072937293 km 160670426330-11-2020 02:44 map
6 km SSE of Indios, Puerto Rico 2.1 0071547154 km 160670405330-11-2020 02:40 map
6 km WSW of Guánica, Puerto Rico 2.5 0071657165 km 160670245830-11-2020 02:14 map
7 km SW of Volcano, Hawaii 2.1 01195311953 km 160670162930-11-2020 02:00 map
7 km SSE of Fern Forest, Hawaii 2.3 01194911949 km 160670137930-11-2020 01:56 map
15 km ESE of Honaunau-Napoopoo, Hawaii 2.8 01196011960 km 160669987330-11-2020 01:31 map
1 km NNW of Guayanilla, Puerto Rico 2.1 0071467146 km 160669881730-11-2020 01:13 map
88 km SSE of Ugashik, Alaska 2.8 0079297929 km 160669799230-11-2020 00:59 map
42 km ESE of Nelson Lagoon, Alaska 3.6 0080678067 km 160669785430-11-2020 00:57 map
1 km SSE of Guánica, Puerto Rico 2.3 0071607160 km 160669653630-11-2020 00:35 map
86 km NE of Punta Cana, Dominican Republic 3.1 0071277127 km 160669161329-11-2020 23:13 map
15 km WSW of Searles Valley, CA 3.1 0088428842 km 160668898829-11-2020 22:29 map
3 km SW of Guánica, Puerto Rico 2.2 0071627162 km 160668708029-11-2020 21:58 map
85 km W of Salamatof, Alaska 3.1 0074567456 km 160668644429-11-2020 21:47 map
26 km E of Pedro Bay, Alaska 2.0 0075527552 km 160668317429-11-2020 20:52 map
63 km NW of Rachel, Nevada 2.1 0085618561 km 160668272129-11-2020 20:45 map
13 km W of Ludlow, CA 2.0 0088728872 km 160668255029-11-2020 20:42 map
3 km SSW of Guánica, Puerto Rico 2.8 0071627162 km 160668216829-11-2020 20:36 map
Samar, Philippines 4.9 01094410944 km 160668142929-11-2020 20:23 map
Mariana Islands region 4.2 01100011000 km 160668045929-11-2020 20:07 map
56 km NNE of Yakutat, Alaska 2.1 0072637263 km 160667987029-11-2020 19:57 map
97 km NW of Elfin Cove, Alaska 3.1 0073557355 km 160667894729-11-2020 19:42 map
46 km ENE of Pedro Bay, Alaska 2.3 0075347534 km 160667852129-11-2020 19:35 map
16 km NNW of Stanley, Idaho 2.5 0079267926 km 160667728929-11-2020 19:14 map
102 km NNW of San Antonio, Puerto Rico 2.7 0070857085 km 160667669029-11-2020 19:04 map
48 km E of Punta Cana, Dominican Republic 3.3 0071877187 km 160667650029-11-2020 19:01 map
4 km SSW of Volcano, Hawaii 2.0 01195111951 km 160667414329-11-2020 18:22 map
10 km WSW of Petrolia, CA 2.4 0087238723 km 160667247129-11-2020 17:54 map
13 km W of Clam Gulch, Alaska 3.1 0074787478 km 160667173129-11-2020 17:42 map
54 km SW of Hughes, Alaska 2.5 0069346934 km 160667146129-11-2020 17:37 map
Southwest Indian Ridge 5.0 01056610566 km 160666873829-11-2020 16:52 map
34 km E of Humahuaca, Argentina 5.8 01065610656 km 160666804429-11-2020 16:40 map
2 km SSW of Guánica, Puerto Rico 2.0 0071627162 km 160666636429-11-2020 16:12 map
182 km WSW of Adak, Alaska 4.9 0086728672 km 160666545929-11-2020 15:57 map
11 km WSW of Petrolia, CA 3.5 0087258725 km 160666481229-11-2020 15:46 map
66 km WNW of Ninilchik, Alaska 2.0 0074897489 km 160666404329-11-2020 15:34 map
southern Idaho 2.1 0079327932 km 160666191629-11-2020 14:58 map
61 km E of Port Alsworth, Alaska 2.2 0075057505 km 160666181829-11-2020 14:56 map
2 km SW of Indios, Puerto Rico 2.2 0071547154 km 160666155229-11-2020 14:52 map
110 km SSW of Pagar Alam, Indonesia 4.7 01103911039 km 160666130829-11-2020 14:48 map
15 km NW of Pawnee, Oklahoma 2.5 0076537653 km 160666012029-11-2020 14:28 map
17 km WNW of Ester, Alaska 2.4 0069306930 km 160665935929-11-2020 14:15 map
Rat Islands, Aleutian Islands, Alaska 3.4 0085898589 km 160665905929-11-2020 14:10 map
31 km SE of Mina, Nevada 2.0 0086308630 km 160665766529-11-2020 13:47 map
67 km ENE of Hualien City, Taiwan 4.9 0096959695 km 160665733429-11-2020 13:42 map
69 km SE of Cantwell, Alaska 2.8 0071397139 km 160665718629-11-2020 13:39 map
147 km WNW of Haines Junction, Canada 2.1 0071717171 km 160665714129-11-2020 13:39 map
12 km SSE of Maria Antonia, Puerto Rico 2.3 0071627162 km 160665552329-11-2020 13:12 map
0 km SE of Guánica, Puerto Rico 2.5 0071597159 km 160665398929-11-2020 12:46 map
19 km SSW of Susitna North, Alaska 2.0 0072637263 km 160665381229-11-2020 12:43 map
18 km N of New Idria, CA 2.1 0089118911 km 160664782529-11-2020 11:03 map
18 km SW of Coyanosa, Texas 2.4 0084768476 km 160664664929-11-2020 10:44 map
17 km E of San Ignacio, Peru 4.7 0099779977 km 160664623029-11-2020 10:37 map
32 km SE of Mina, Nevada 2.4 0086308630 km 160664421829-11-2020 10:03 map
16 km WNW of Stanley, Idaho 2.1 0079367936 km 160664410029-11-2020 10:01 map
1 km SSE of Guánica, Puerto Rico 2.2 0071597159 km 160664367129-11-2020 09:54 map
22 km WNW of Stanley, Idaho 2.1 0079367936 km 160664278429-11-2020 09:39 map
Puerto Rico region 2.3 0071637163 km 160664256429-11-2020 09:36 map
20 km WSW of Coyanosa, Texas 3.3 0084778477 km 160664163829-11-2020 09:20 map
21 km WNW of Stanley, Idaho 2.5 0079397939 km 160663985729-11-2020 08:50 map
66 km E of Port Alsworth, Alaska 2.3 0075017501 km 160663902829-11-2020 08:37 map
32 km SE of Mina, Nevada 2.1 0086308630 km 160663783929-11-2020 08:17 map
Chiapas, Mexico 4.6 0089758975 km 160663725229-11-2020 08:07 map
3 km SSE of Pāhala, Hawaii 2.1 01198211982 km 160663703429-11-2020 08:03 map
38 km SSE of Nelchina, Alaska 2.0 0072407240 km 160663660129-11-2020 07:56 map
46 km W of Happy Valley, Alaska 2.1 0075147514 km 160663640129-11-2020 07:53 map
1 km ESE of Pāhala, Hawaii 2.3 01197911979 km 160663560329-11-2020 07:40 map
51 km SSE of Glacier View, Alaska 2.4 0072807280 km 160663488629-11-2020 07:28 map
1 km SE of Guánica, Puerto Rico 2.4 0071597159 km 160663324629-11-2020 07:00 map
92 km WNW of Yakutat, Alaska 3.4 0073197319 km 160663065029-11-2020 06:17 map
117 km NE of Punta Cana, Dominican Republic 3.4 0070967096 km 160662865129-11-2020 05:44 map
71 km SSW of Shungnak, Alaska 2.2 0069026902 km 160662811929-11-2020 05:35 map
20 km NNW of French Gulch, CA 2.2 0085948594 km 160662763129-11-2020 05:27 map
13 km SSW of Searles Valley, CA 2.0 0088438843 km 160662735229-11-2020 05:22 map
2 km S of Guánica, Puerto Rico 2.0 0071617161 km 160662617629-11-2020 05:02 map
5 km E of Pāhala, Hawaii 2.0 01197811978 km 160662577529-11-2020 04:56 map
4 km SSE of Pāhala, Hawaii 2.0 01198211982 km 160662536129-11-2020 04:49 map
25 km SSW of Gerāsh, Iran 4.9 0048914891 km 160662386829-11-2020 04:24 map
27 km E of Skwentna, Alaska 2.1 0072787278 km 160661966529-11-2020 03:14 map
48 km NNW of Beluga, Alaska 2.1 0073397339 km 160661641429-11-2020 02:20 map
14 km SSW of Searles Valley, CA 2.0 0088438843 km 160661516029-11-2020 01:59 map
7 km NW of The Geysers, CA 2.2 0087968796 km 160661372129-11-2020 01:35 map
29 km NNE of Old Harbor, Alaska 2.2 0077987798 km 160661364129-11-2020 01:34 map
27 km WNW of Valdez, Alaska 2.0 0072867286 km 160661209129-11-2020 01:08 map
47 km N of Petersville, Alaska 2.0 0071777177 km 160660967729-11-2020 00:27 map
3 km S of Pāhala, Hawaii 2.0 01198211982 km 160660818129-11-2020 00:03 map
66 km SE of Pope-Vannoy Landing, Alaska 3.4 0076227622 km 160660747028-11-2020 23:51 map
89 km WSW of Banda Aceh, Indonesia 4.7 0095639563 km 160660725328-11-2020 23:47 map
9 km SSE of Maria Antonia, Puerto Rico 2.3 0071627162 km 160660508228-11-2020 23:11 map
27 km SE of Adak, Alaska 3.7 0086138613 km 160660417228-11-2020 22:56 map
10 km ENE of Pāhala, Hawaii 2.2 01197211972 km 160660397728-11-2020 22:52 map
10 km ENE of Pāhala, Hawaii 2.0 01197211972 km 160660321728-11-2020 22:40 map
10 km ENE of Pāhala, Hawaii 3.0 01197211972 km 160660167328-11-2020 22:14 map
6 km ENE of Pāhala, Hawaii 2.1 01197511975 km 160660155528-11-2020 22:12 map
128 km S of Cordova, Alaska 2.5 0074607460 km 160660139328-11-2020 22:09 map
4 km SE of Otra Banda, Dominican Republic 3.6 0072257225 km 160660065028-11-2020 21:57 map
21 km W of Tatitlek, Alaska 2.5 0073307330 km 160660045328-11-2020 21:54 map
30 km SSE of Pelabuhanratu, Indonesia 4.6 01149411494 km 160659767228-11-2020 21:07 map
4 km ESE of Los Angeles, CA 2.3 0090319031 km 160659750528-11-2020 21:05 map
54 km W of Anchor Point, Alaska 2.1 0075457545 km 160659658828-11-2020 20:49 map
44 km ESE of Central, Alaska 2.2 0068066806 km 160659604228-11-2020 20:40 map
8 km S of Indios, Puerto Rico 2.1 0071577157 km 160659584028-11-2020 20:37 map
16 km NNE of Avon, Montana 2.1 0075997599 km 160659505028-11-2020 20:24 map
80 km NE of Lime Village, Alaska 2.0 0073357335 km 160659468428-11-2020 20:18 map
Mauritius - Reunion region 4.8 0096769676 km 160659452428-11-2020 20:15 map
11 km ESE of Waimea, Hawaii 2.0 01189811898 km 160658991128-11-2020 18:58 map
19 km SSW of Susitna North, Alaska 2.1 0072627262 km 160658841428-11-2020 18:33 map
20 km ENE of Stanley, Idaho 2.7 0079207920 km 160658817428-11-2020 18:29 map
47 km WSW of Cantwell, Alaska 2.6 0071337133 km 160658727828-11-2020 18:14 map
Minahasa, Sulawesi, Indonesia 4.6 01175011750 km 160658437028-11-2020 17:26 map
101 km SSW of Nikolski, Alaska 4.6 0085528552 km 160658327728-11-2020 17:07 map
Hawaii region, Hawaii 2.7 01198511985 km 160658211228-11-2020 16:48 map
100 km NW of Yakutat, Alaska 2.0 0072947294 km 160658131728-11-2020 16:35 map
1 km SSE of Cidra, Puerto Rico 2.3 0070907090 km 160657732928-11-2020 15:28 map
2 km NNE of Big Lake, Alaska 2.0 0073107310 km 160657611428-11-2020 15:08 map
36 km NW of Mosquito Lake, Alaska 3.2 0072207220 km 160657472928-11-2020 14:45 map
3 km WSW of Guánica, Puerto Rico 2.2 0071627162 km 160657259328-11-2020 14:09 map
Island of Hawaii, Hawaii 2.3 01198411984 km 160657082128-11-2020 13:40 map
50 km WNW of Nanwalek, Alaska 2.1 0075707570 km 160656753728-11-2020 12:45 map
35 km NNE of Benton, California 2.0 0086558655 km 160656565228-11-2020 12:14 map
34 km NNE of Benton, California 2.1 0086568656 km 160656534428-11-2020 12:09 map
8 km WNW of Point Possession, Alaska 2.5 0073897389 km 160656357628-11-2020 11:39 map
108 km SSE of Sand Point, Alaska 3.6 0082098209 km 160656348328-11-2020 11:38 map
259 km NW of Tual, Indonesia 4.5 01283812838 km 160656250628-11-2020 11:21 map
10 km ENE of Pāhala, Hawaii 2.1 01197211972 km 160656158428-11-2020 11:06 map
33 km SE of Mina, Nevada 2.5 0086328632 km 160656154728-11-2020 11:05 map
66 km SW of Akhiok, Alaska 3.0 0079287928 km 160655904228-11-2020 10:24 map
7 km NE of Pāhala, Hawaii 2.3 01197311973 km 160655822628-11-2020 10:10 map
7 km ENE of Pāhala, Hawaii 2.4 01197411974 km 160655800028-11-2020 10:06 map
161 km ESE of Kimbe, Papua New Guinea 4.6 01417014170 km 160655794928-11-2020 10:05 map
7 km ENE of Pāhala, Hawaii 2.3 01197411974 km 160655792528-11-2020 10:05 map
8 km NNE of Sunrise, Alaska 2.2 0073647364 km 160655772728-11-2020 10:02 map
23 km WNW of Karluk, Alaska 2.9 0078027802 km 160655458128-11-2020 09:09 map
9 km NW of Stanley, Idaho 2.1 0079357935 km 160655013128-11-2020 07:55 map
15 km NNW of Stanley, Idaho 2.5 0079277927 km 160655003328-11-2020 07:53 map
82 km SE of Gizo, Solomon Islands 4.9 01471014710 km 160654667028-11-2020 06:57 map
14 km SSE of Guánica, Puerto Rico 2.2 0071667166 km 160654605428-11-2020 06:47 map
75 km SSE of Cantwell, Alaska 2.4 0071527152 km 160654421528-11-2020 06:16 map
77 km WSW of Nanwalek, Alaska 2.0 0076137613 km 160653960428-11-2020 05:00 map
60 km WNW of Rincón, Puerto Rico 3.2 0071767176 km 160653897728-11-2020 04:49 map
6 km WSW of Guánica, Puerto Rico 2.4 0071657165 km 160653764028-11-2020 04:27 map
South Sandwich Islands region 5.0 01224112241 km 160653630428-11-2020 04:05 map
14 km SW of Volcano, Hawaii 2.2 01196011960 km 160653458728-11-2020 03:36 map
22 km NW of Ludlow, CA 2.6 0088618861 km 160653330728-11-2020 03:15 map
116 km SE of Petropavlovsk-Kamchatsky, Russia 4.4 0083218321 km 160653204428-11-2020 02:54 map
79 km W of Vandenberg Air Force Base, CA 2.1 0091289128 km 160652849928-11-2020 01:54 map
5 km SSE of Pāhala, Hawaii 2.0 01198411984 km 160652793628-11-2020 01:45 map
22 km SW of Lompoc, CA 2.5 0091049104 km 160652596628-11-2020 01:12 map
2 km E of Loma Linda, CA 2.9 0089828982 km 160652501628-11-2020 00:56 map
6 km NW of The Geysers, CA 2.4 0087968796 km 160652426728-11-2020 00:44 map
16 km NNE of Willow, Alaska 2.3 0072747274 km 160652222828-11-2020 00:10 map
16 km W of Ashkāsham, Afghanistan 4.0 0054055405 km 160652217028-11-2020 00:09 map
western Xizang 4.5 0067936793 km 160652027127-11-2020 23:37 map
3 km NE of Pāhala, Hawaii 2.3 01197611976 km 160652009827-11-2020 23:34 map
9 km SE of La Parguera, Puerto Rico 2.4 0071697169 km 160651846027-11-2020 23:07 map
53 km SSW of Ashkāsham, Afghanistan 3.9 0054375437 km 160651819327-11-2020 23:03 map
110 km SE of Petropavlovsk-Kamchatsky, Russia 4.7 0083188318 km 160651783727-11-2020 22:57 map
14 km NNW of Stanley, Idaho 3.0 0079297929 km 160651756927-11-2020 22:52 map
8 km ENE of Pāhala, Hawaii 2.0 01197311973 km 160651601327-11-2020 22:26 map
11 km ESE of Julian, CA 2.8 0090379037 km 160651422327-11-2020 21:57 map
18 km SSE of Ocotillo Wells, CA 2.0 0090179017 km 160651241727-11-2020 21:26 map
southern Mid-Atlantic Ridge 5.1 0083208320 km 160651085527-11-2020 21:00 map
southern Idaho 2.1 0079307930 km 160650297527-11-2020 18:49 map
7 km SW of Guánica, Puerto Rico 2.6 0071667166 km 160650295827-11-2020 18:49 map
77 km SSE of Severo-Kuril’sk, Russia 5.3 0084918491 km 160650270927-11-2020 18:45 map
southeast Indian Ridge 4.5 01421514215 km 160650239827-11-2020 18:39 map
52 km E of Saint Croix, U.S. Virgin Islands 4.0 0070017001 km 160650210927-11-2020 18:35 map
6 km ESE of Round Valley, CA 2.3 0087348734 km 160650195827-11-2020 18:32 map
30 km NW of Nabesna, Alaska 2.3 0070857085 km 160650189027-11-2020 18:31 map
3 km NE of Eastborough, Kansas 2.3 0075647564 km 160650165827-11-2020 18:27 map
81 km W of Vandenberg Air Force Base, CA 2.2 0091249124 km 160649975627-11-2020 17:55 map
6 km S of Houston, Alaska 3.0 0073057305 km 160649966727-11-2020 17:54 map
14 km S of Guánica, Puerto Rico 2.7 0071697169 km 160649888927-11-2020 17:41 map
60 km SE of Denali National Park, Alaska 2.0 0071497149 km 160649747227-11-2020 17:17 map
56 km ESE of Saint Croix, U.S. Virgin Islands 3.6 0070077007 km 160649611227-11-2020 16:55 map
5 km WSW of Fuig, Puerto Rico 2.4 0071637163 km 160649584227-11-2020 16:50 map
65 km SSW of Shungnak, Alaska 2.6 0068966896 km 160649551527-11-2020 16:45 map
107 km NE of Tobelo, Indonesia 4.6 01209712097 km 160649541227-11-2020 16:43 map
66 km SSW of Shungnak, Alaska 2.3 0068966896 km 160649484727-11-2020 16:34 map
6 km WSW of Guánica, Puerto Rico 2.0 0071657165 km 160649474327-11-2020 16:32 map
14 km SSE of Maria Antonia, Puerto Rico 2.9 0071647164 km 160648937527-11-2020 15:02 map
6 km SSE of Maria Antonia, Puerto Rico 2.6 0071597159 km 160648704427-11-2020 14:24 map
15 km S of Fern Forest, Hawaii 2.4 01195711957 km 160648429427-11-2020 13:38 map
139 km NNW of Ambon, Indonesia 4.8 01249512495 km 160648426527-11-2020 13:37 map
13 km S of Guánica, Puerto Rico 2.6 0071697169 km 160648245127-11-2020 13:07 map
9 km N of Peralta, Dominican Republic 4.2 0073727372 km 160647958227-11-2020 12:19 map
16 km N of Hope, Alaska 2.9 0073577357 km 160647947227-11-2020 12:17 map
9 km SE of El Guayabal, Dominican Republic 4.2 0073717371 km 160647931327-11-2020 12:15 map
Izu Islands, Japan region 4.0 0098929892 km 160647792127-11-2020 11:52 map
36 km NNW of Sinabang, Indonesia 4.5 0099029902 km 160647042827-11-2020 09:47 map
4 km SW of Guánica, Puerto Rico 2.0 0071647164 km 160647026627-11-2020 09:44 map
12 km S of Guánica, Puerto Rico 2.5 0071687168 km 160646845327-11-2020 09:14 map
7 km SSW of Tallaboa, Puerto Rico 2.5 0071517151 km 160646615227-11-2020 08:35 map
9 km NNW of Sincik, Turkey 4.6 0030263026 km 160646567627-11-2020 08:27 map
33 km NNW of Stanley, Idaho 2.5 0079237923 km 160646432627-11-2020 08:05 map
49 km S of Cantwell, Alaska 2.0 0071447144 km 160646339027-11-2020 07:49 map
103 km N of Charlotte Amalie, U.S. Virgin Islands 3.4 0069236923 km 160646198227-11-2020 07:26 map
259 km SE of Chiniak, Alaska 3.7 0078577857 km 160646099827-11-2020 07:09 map
5 km N of Loíza, Puerto Rico 2.0 0070457045 km 160646087027-11-2020 07:07 map
15 km NNW of Stanley, Idaho 2.4 0079287928 km 160646038127-11-2020 06:59 map
37 km W of Nanwalek, Alaska 2.2 0075817581 km 160645993127-11-2020 06:52 map
15 km NNW of Stanley, Idaho 2.0 0079277927 km 160645980927-11-2020 06:50 map
Gulf of Aden 4.5 0058755875 km 160645972927-11-2020 06:48 map
50 km NW of Beluga, Alaska 2.2 0073517351 km 160645971527-11-2020 06:48 map
58 km SW of Kivalina, Alaska 3.3 0068426842 km 160645910627-11-2020 06:38 map
29 km NNW of Stanley, Idaho 3.5 0079247924 km 160645774927-11-2020 06:15 map
13 km S of Guánica, Puerto Rico 2.2 0071697169 km 160645666127-11-2020 05:57 map
southern Idaho 2.1 0079287928 km 160645647027-11-2020 05:54 map
33 km ENE of Cantwell, Alaska 2.0 0070807080 km 160645393827-11-2020 05:12 map
14 km SSE of Tres Pinos, CA 2.5 0089328932 km 160645317827-11-2020 04:59 map
southern Idaho 2.9 0079257925 km 160645183527-11-2020 04:37 map
8 km NW of The Geysers, CA 2.3 0087948794 km 160645127727-11-2020 04:27 map
11 km ENE of Pāhala, Hawaii 2.3 01197111971 km 160645040927-11-2020 04:13 map
10 km ENE of Pāhala, Hawaii 2.1 01197311973 km 160644962627-11-2020 04:00 map
126 km NW of Vallenar, Chile 4.2 01145411454 km 160644952127-11-2020 03:58 map
11 km ENE of Pāhala, Hawaii 2.1 01197211972 km 160644925227-11-2020 03:54 map
10 km ENE of Pāhala, Hawaii 2.2 01197211972 km 160644576327-11-2020 02:56 map
5 km NNE of Anacortes, Washington 2.3 0078637863 km 160644559927-11-2020 02:53 map
1 km S of Lumbangan, Philippines 4.5 01054010540 km 160644467327-11-2020 02:37 map
10 km ENE of Pāhala, Hawaii 2.2 01197311973 km 160644387927-11-2020 02:24 map
224 km E of Port Mathurin, Mauritius 4.7 0098199819 km 160644163827-11-2020 01:47 map
19 km WNW of Stanley, Idaho 2.5 0079397939 km 160644161127-11-2020 01:46 map
southern Peru 4.0 01045710457 km 160644087627-11-2020 01:34 map
1 km ESE of Magas Arriba, Puerto Rico 2.6 0071457145 km 160643862327-11-2020 00:57 map
2 km S of Tallaboa, Puerto Rico 2.6 0071467146 km 160643738827-11-2020 00:36 map
12 km S of Guánica, Puerto Rico 2.3 0071687168 km 160643512326-11-2020 23:58 map
14 km S of Guánica, Puerto Rico 3.1 0071697169 km 160643373326-11-2020 23:35 map
3 km SSE of Maria Antonia, Puerto Rico 2.4 0071587158 km 160643325926-11-2020 23:27 map
6 km WSW of Guánica, Puerto Rico 2.0 0071647164 km 160643301526-11-2020 23:23 map
10 km NW of Calipatria, CA 2.0 0089798979 km 160643251026-11-2020 23:15 map
10 km NW of Calipatria, CA 2.1 0089798979 km 160643211226-11-2020 23:08 map
10 km WNW of Calipatria, CA 3.6 0089808980 km 160643159726-11-2020 22:59 map
Virgin Islands region 3.2 0069246924 km 160643001026-11-2020 22:33 map
2 km NE of Eastborough, Kansas 2.5 0075657565 km 160642966026-11-2020 22:27 map
13 km S of Guánica, Puerto Rico 2.8 0071687168 km 160642861826-11-2020 22:10 map
23 km SSE of Al Quţayfah, Syria 4.1 0032463246 km 160642850426-11-2020 22:08 map
57 km SSE of Adak, Alaska 4.0 0086468646 km 160642802126-11-2020 22:00 map
10 km WNW of Calipatria, CA 2.2 0089808980 km 160642714226-11-2020 21:45 map
13 km S of Guánica, Puerto Rico 2.5 0071697169 km 160642591926-11-2020 21:25 map
14 km S of Fern Forest, Hawaii 3.2 01195611956 km 160642536926-11-2020 21:16 map
18 km SSW of Susitna North, Alaska 4.5 0072627262 km 160642513026-11-2020 21:12 map
12 km S of Guánica, Puerto Rico 2.8 0071687168 km 160642499326-11-2020 21:09 map
19 km S of Volcano, Hawaii 2.4 01196511965 km 160642445326-11-2020 21:00 map
15 km S of Guánica, Puerto Rico 3.2 0071707170 km 160642431326-11-2020 20:58 map
30 km E of Miyako, Japan 4.5 0091529152 km 160642406726-11-2020 20:54 map
14 km S of Arvin, CA 2.9 0089648964 km 160642398526-11-2020 20:53 map
4 km W of Orlando, Oklahoma 2.1 0077067706 km 160642240126-11-2020 20:26 map
14 km S of Guánica, Puerto Rico 2.2 0071697169 km 160642239926-11-2020 20:26 map
10 km SW of Niland, CA 2.0 0089798979 km 160642214126-11-2020 20:22 map
11 km S of Guánica, Puerto Rico 2.5 0071677167 km 160642194226-11-2020 20:19 map
112 km N of Charlotte Amalie, U.S. Virgin Islands 3.2 0069066906 km 160642188026-11-2020 20:18 map
18 km S of Volcano, Hawaii 2.2 01196411964 km 160642161826-11-2020 20:13 map
14 km S of Guánica, Puerto Rico 3.5 0071707170 km 160642056826-11-2020 19:56 map
10 km NNE of Quinlan, Oklahoma 2.2 0077657765 km 160642009326-11-2020 19:48 map
5 km S of Pāhala, Hawaii 2.3 01198311983 km 160641490426-11-2020 18:21 map
31 km WSW of Ashkāsham, Afghanistan 4.4 0054075407 km 160641165526-11-2020 17:27 map
Southwest Indian Ridge 5.2 01083510835 km 160641022626-11-2020 17:03 map
7 km SSE of Littlerock, CA 3.1 0089798979 km 160640955926-11-2020 16:52 map
14 km SW of Stanley, Idaho 2.5 0079507950 km 160640870026-11-2020 16:38 map
93 km E of Iquique, Chile 4.3 01064310643 km 160640777026-11-2020 16:22 map
71 km WNW of Karluk, Alaska 2.0 0077957795 km 160640750926-11-2020 16:18 map
Volcano Islands, Japan region 4.8 01092110921 km 160640544226-11-2020 15:44 map
44 km WSW of Anchor Point, Alaska 2.1 0075517551 km 160640513426-11-2020 15:38 map
3 km SSW of Pāhala, Hawaii 2.1 01198211982 km 160640351626-11-2020 15:11 map
64 km W of Nanwalek, Alaska 2.0 0075827582 km 160640226126-11-2020 14:51 map
9 km E of Pāhala, Hawaii 2.0 01197511975 km 160640161526-11-2020 14:40 map
34 km WSW of Manley Hot Springs, Alaska 2.2 0069746974 km 160640062426-11-2020 14:23 map
110 km ESE of Angoram, Papua New Guinea 4.4 01370313703 km 160639503126-11-2020 12:50 map
13 km NW of Pinnacles, CA 2.2 0089348934 km 160639334926-11-2020 12:22 map
Carlsberg Ridge 4.7 0073667366 km 160639326826-11-2020 12:21 map
68 km ESE of Denali National Park, Alaska 2.0 0071397139 km 160639244626-11-2020 12:07 map
10 km SSE of Guánica, Puerto Rico 2.7 0071647164 km 160639168426-11-2020 11:54 map
45 km WSW of Masachapa, Nicaragua 4.7 0090929092 km 160639150526-11-2020 11:51 map
5 km SSE of Maria Antonia, Puerto Rico 2.9 0071607160 km 160638826526-11-2020 10:57 map
43 km SSW of Ashkāsham, Afghanistan 4.4 0054265426 km 160638490626-11-2020 10:01 map
29 km SE of Bodie, CA 3.3 0086818681 km 160638423026-11-2020 09:50 map
10 km W of Lamont, Oklahoma 2.9 0076737673 km 160638296726-11-2020 09:29 map
30 km SSE of Mina, Nevada 2.4 0086378637 km 160638231926-11-2020 09:18 map
98 km N of Culebra, Puerto Rico 3.4 0069396939 km 160638143526-11-2020 09:03 map
30 km NNW of Pante Makasar, Timor Leste 4.5 01285112851 km 160638127426-11-2020 09:01 map
6 km SSW of Tres Pinos, CA 2.0 0089268926 km 160638032026-11-2020 08:45 map
104 km N of Charlotte Amalie, U.S. Virgin Islands 3.6 0069246924 km 160638004326-11-2020 08:40 map
2 km NE of Yauco, Puerto Rico 2.2 0071477147 km 160637832926-11-2020 08:12 map
10 km NE of Eagle River, Alaska 2.3 0073187318 km 160637584726-11-2020 07:30 map
11 km SSE of Guánica, Puerto Rico 2.2 0071647164 km 160637582226-11-2020 07:30 map
30 km S of Akutan, Alaska 3.7 0083368336 km 160637467626-11-2020 07:11 map
105 km N of Charlotte Amalie, U.S. Virgin Islands 4.7 0069206920 km 160637446526-11-2020 07:07 map
4 km ESE of La Parguera, Puerto Rico 2.2 0071677167 km 160637291426-11-2020 06:41 map
15 km E of Ferry, Alaska 2.2 0070307030 km 160637233026-11-2020 06:32 map
21 km ESE of Little Lake, CA 2.2 0088338833 km 160636826326-11-2020 05:24 map
5 km SSE of Maria Antonia, Puerto Rico 2.4 0071607160 km 160636694526-11-2020 05:02 map
101 km SE of Angoram, Papua New Guinea 5.1 01370013700 km 160636575526-11-2020 04:42 map
1 km NW of Yauco, Puerto Rico 2.0 0071497149 km 160636405426-11-2020 04:14 map
45 km NW of Toyah, Texas 2.5 0084978497 km 160636325126-11-2020 04:00 map
111 km SE of Angoram, Papua New Guinea 5.4 01370613706 km 160636246526-11-2020 03:47 map
55 km WNW of Salamatof, Alaska 2.3 0074357435 km 160636132726-11-2020 03:28 map
12 km WNW of Pāhala, Hawaii 2.7 01197811978 km 160635989226-11-2020 03:04 map
3 km SSE of Pāhala, Hawaii 2.0 01198211982 km 160635974526-11-2020 03:02 map
20 km SW of Illapel, Chile 4.2 01178411784 km 160635907226-11-2020 02:51 map
62 km N of Kimbe, Papua New Guinea 4.4 01400614006 km 160635544826-11-2020 01:50 map
62 km N of San Antonio, Puerto Rico 2.5 0070897089 km 160635478626-11-2020 01:39 map
170 km WSW of Brookings, Oregon 3.0 0086748674 km 160635476826-11-2020 01:39 map
3 km E of Maria Antonia, Puerto Rico 2.2 0071547154 km 160635434126-11-2020 01:32 map
western Xizang 4.2 0067886788 km 160635333226-11-2020 01:15 map
2 km SSE of Maria Antonia, Puerto Rico 2.4 0071587158 km 160635317326-11-2020 01:12 map
11 km E of Pāhala, Hawaii 2.0 01197411974 km 160635210726-11-2020 00:55 map
44 km E of Yakutat, Alaska 2.3 0072967296 km 160635163026-11-2020 00:47 map
8 km ENE of Pāhala, Hawaii 2.1 01197511975 km 160634750825-11-2020 23:38 map
South Shetland Islands 4.1 01372013720 km 160634650125-11-2020 23:21 map
48 km WNW of Happy Valley, Alaska 2.0 0075097509 km 160634633125-11-2020 23:18 map
9 km SSE of Volcano, Hawaii 2.1 01195411954 km 160634632725-11-2020 23:18 map
36 km NW of Sérifos, Greece 4.0 0021682168 km 160634429725-11-2020 22:44 map
southeast of Easter Island 5.7 01372113721 km 160634386225-11-2020 22:37 map
5 km S of Guánica, Puerto Rico 2.9 0071637163 km 160634337425-11-2020 22:29 map
111 km NW of Yakutat, Alaska 2.5 0072927292 km 160634265325-11-2020 22:17 map
29 km SE of Bodie, CA 2.2 0086818681 km 160634183825-11-2020 22:03 map
33 km SE of Mina, Nevada 2.0 0086298629 km 160633960525-11-2020 21:26 map
33 km SE of Mina, Nevada 2.6 0086298629 km 160633955625-11-2020 21:25 map
9 km S of Funny River, Alaska 2.0 0074437443 km 160633872325-11-2020 21:12 map
155 km NNE of Calama, Chile 4.3 01068610686 km 160633756325-11-2020 20:52 map
21 km ENE of Honaunau-Napoopoo, Hawaii 2.2 01195011950 km 160633703525-11-2020 20:43 map
89 km S of Serdar, Turkmenistan 4.8 0042414241 km 160633510025-11-2020 20:11 map
82 km N of Cruz Bay, U.S. Virgin Islands 3.6 0069136913 km 160633442825-11-2020 20:00 map
175 km SW of Nikolski, Alaska 4.4 0085678567 km 160633369725-11-2020 19:48 map
83 km NW of San Antonio, Puerto Rico 3.1 0071167116 km 160633327625-11-2020 19:41 map
7 km NE of Aguanga, CA 2.8 0090139013 km 160633111125-11-2020 19:05 map
11 km NNW of Midland, Texas 2.5 0083288328 km 160633073325-11-2020 18:58 map
30 km E of Miches, Dominican Republic 3.8 0072077207 km 160632899625-11-2020 18:29 map
8 km ENE of Pāhala, Hawaii 2.1 01197511975 km 160632876225-11-2020 18:26 map
21 km ENE of Honaunau-Napoopoo, Hawaii 2.1 01195011950 km 160632873525-11-2020 18:25 map
10 km NE of Coso Junction, CA 2.1 0088218821 km 160632834725-11-2020 18:19 map
11 km SSW of Leilani Estates, Hawaii 2.1 01194711947 km 160632616925-11-2020 17:42 map
16 km S of Volcano, Hawaii 2.3 01196311963 km 160632593825-11-2020 17:38 map
12 km SW of Glacier View, Alaska 2.1 0072557255 km 160632362125-11-2020 17:00 map
203 km SSE of Katsuura, Japan 4.3 0097309730 km 160632344425-11-2020 16:57 map
49 km S of George Town, Cayman Islands 4.4 0081018101 km 160632300125-11-2020 16:50 map
50 km NNW of Petersville, Alaska 2.2 0071787178 km 160631963625-11-2020 15:53 map
69 km WNW of Tobelo, Indonesia 5.0 01207512075 km 160631763425-11-2020 15:20 map
20 km WSW of Coyanosa, Texas 3.0 0084778477 km 160631462925-11-2020 14:30 map
15 km NNW of Stanley, Idaho 3.1 0079297929 km 160631274225-11-2020 13:59 map
112 km SSW of Kaktovik, Alaska 2.6 0064296429 km 160631185925-11-2020 13:44 map
13 km NNW of Stanley, Idaho 3.7 0079297929 km 160631182625-11-2020 13:43 map
9 km E of Hebgen Lake Estates, Montana 3.1 0077027702 km 160630910125-11-2020 12:58 map
15 km NNW of Stanley, Idaho 2.9 0079297929 km 160630705025-11-2020 12:24 map
5 km WSW of Guánica, Puerto Rico 2.1 0071647164 km 160630629925-11-2020 12:11 map
90 km NE of Punta Cana, Dominican Republic 3.5 0071247124 km 160630446325-11-2020 11:41 map
9 km NNE of Quinlan, Oklahoma 2.0 0077667766 km 160630416425-11-2020 11:36 map
40 km SE of Halibut Cove, Alaska 2.7 0075637563 km 160630246625-11-2020 11:07 map
4 km WNW of San Javier, Chile 4.6 01213612136 km 160630190425-11-2020 10:58 map
5 km SSW of Volcano, Hawaii 2.2 01195311953 km 160630135025-11-2020 10:49 map
6 km S of Volcano, Hawaii 2.2 01195311953 km 160630134925-11-2020 10:49 map
4 km SE of Maria Antonia, Puerto Rico 2.3 0071577157 km 160630100425-11-2020 10:43 map
5 km SSW of Indios, Puerto Rico 3.2 0071567156 km 160630015925-11-2020 10:29 map
6 km SW of Volcano, Hawaii 2.0 01195211952 km 160629986625-11-2020 10:24 map
9 km E of Bancroft, Idaho 2.5 0079197919 km 160629935325-11-2020 10:15 map
41 km N of Petersville, Alaska 2.5 0071857185 km 160629912525-11-2020 10:12 map
150 km SW of Padangsidempuan, Indonesia 4.4 01024510245 km 160629905925-11-2020 10:10 map
1 km SSW of Guánica, Puerto Rico 2.3 0071607160 km 160629879925-11-2020 10:06 map
4 km SSW of Indios, Puerto Rico 2.7 0071557155 km 160629828325-11-2020 09:58 map
11 km S of Ames, Oklahoma 2.3 0077517751 km 160629822025-11-2020 09:57 map
34 km SE of Mina, Nevada 2.2 0086278627 km 160629815125-11-2020 09:55 map
4 km SSE of Pāhala, Hawaii 2.1 01198211982 km 160629775825-11-2020 09:49 map
8 km SSE of Volcano, Hawaii 2.6 01195411954 km 160629653725-11-2020 09:28 map
9 km NNE of Quinlan, Oklahoma 2.4 0077667766 km 160629411425-11-2020 08:48 map
9 km NNE of Quinlan, Oklahoma 2.5 0077667766 km 160629406025-11-2020 08:47 map
9 km NNE of Quinlan, Oklahoma 2.7 0077667766 km 160629405525-11-2020 08:47 map
Oklahoma 2.5 0077667766 km 160629405025-11-2020 08:47 map
12 km NNW of Midland, Texas 3.3 0083288328 km 160629384125-11-2020 08:44 map
9 km SSE of Volcano, Hawaii 2.0 01195311953 km 160629339325-11-2020 08:36 map
25 km WNW of Petersville, Alaska 2.4 0072207220 km 160629131325-11-2020 08:01 map
8 km ENE of Pāhala, Hawaii 2.0 01197311973 km 160628941325-11-2020 07:30 map
8 km ENE of Pāhala, Hawaii 2.0 01197311973 km 160628903125-11-2020 07:23 map
7 km ENE of Pāhala, Hawaii 2.6 01197411974 km 160628852725-11-2020 07:15 map
8 km ENE of Pāhala, Hawaii 2.6 01197311973 km 160628852125-11-2020 07:15 map
56 km ESE of Sand Point, Alaska 4.1 0081368136 km 160628759825-11-2020 06:59 map
163 km S of Sofifi, Indonesia 4.4 01233712337 km 160628755325-11-2020 06:59 map
2 km NW of Tallaboa, Puerto Rico 2.1 0071437143 km 160628575025-11-2020 06:29 map
48 km W of Nikolski, Alaska 2.4 0084638463 km 160628479825-11-2020 06:13 map
7 km ESE of La Parguera, Puerto Rico 2.2 0071657165 km 160628260425-11-2020 05:36 map
67 km NNE of Petersville, Alaska 2.2 0071547154 km 160628132725-11-2020 05:15 map
5 km SSE of Indios, Puerto Rico 2.2 0071537153 km 160628117525-11-2020 05:12 map
36 km S of Cantwell, Alaska 3.3 0071357135 km 160627967625-11-2020 04:47 map
35 km SE of Mina, Nevada 2.4 0086278627 km 160627797025-11-2020 04:19 map
34 km E of Calingasta, Argentina 4.6 01161011610 km 160627709825-11-2020 04:04 map
5 km ESE of Pole Ojea, Puerto Rico 2.1 0071767176 km 160627691825-11-2020 04:01 map
26 km NW of Stanley, Idaho 2.4 0079357935 km 160627562525-11-2020 03:40 map
47 km ENE of Hinatuan, Philippines 4.6 01141611416 km 160627112525-11-2020 02:25 map
3 km SSW of Mitsukaidō, Japan 4.3 0094309430 km 160627081825-11-2020 02:20 map
9 km E of Hebgen Lake Estates, Montana 2.1 0077027702 km 160627047925-11-2020 02:14 map
2 km S of Guánica, Puerto Rico 2.1 0071617161 km 160626955825-11-2020 01:59 map
7 km SE of Howell, Utah 2.5 0080348034 km 160626796125-11-2020 01:32 map
3 km NNE of Tiquipaya, Bolivia 3.1 01019810198 km 160626718025-11-2020 01:19 map
5 km NE of Ames, Oklahoma 2.2 0077367736 km 160626586925-11-2020 00:57 map
8 km ENE of Pāhala, Hawaii 2.2 01197411974 km 160626458025-11-2020 00:36 map
89 km SSE of Halibut Cove, Alaska 2.6 0076067606 km 160626432125-11-2020 00:32 map
13 km ENE of Chenega, Alaska 2.1 0074257425 km 160626335425-11-2020 00:15 map
4 km WNW of Fillmore, CA 2.0 0090329032 km 160626274225-11-2020 00:05 map
4 km ESE of Three Rivers, Oregon 2.4 0082618261 km 160626263825-11-2020 00:03 map
5 km SSW of Volcano, Hawaii 2.0 01195211952 km 160626240025-11-2020 00:00 map
37 km WSW of Clear, Alaska, Alaska 2.0 0070327032 km 160626235824-11-2020 23:59 map
3 km S of Guánica, Puerto Rico 2.4 0071627162 km 160626215224-11-2020 23:55 map
1 km S of Guánica, Puerto Rico 2.3 0071607160 km 160626159324-11-2020 23:46 map
17 km W of Petrolia, CA 2.1 0087258725 km 160626151824-11-2020 23:45 map
4 km S of Guánica, Puerto Rico 2.7 0071627162 km 160626120124-11-2020 23:40 map
2 km S of Guánica, Puerto Rico 3.1 0071617161 km 160626033324-11-2020 23:25 map
5 km SSW of Indios, Puerto Rico 2.4 0071557155 km 160625781524-11-2020 22:43 map
15 km S of Arvin, CA 2.3 0089648964 km 160625755024-11-2020 22:39 map
6 km SW of Guánica, Puerto Rico 2.3 0071657165 km 160625714224-11-2020 22:32 map
144 km NNW of Rosetta, Egypt 4.0 0029002900 km 160625629624-11-2020 22:18 map
Izu Islands, Japan region 4.6 0099189918 km 160625625824-11-2020 22:17 map
64 km N of Petersville, Alaska 2.4 0071647164 km 160625541924-11-2020 22:03 map
Mid-Indian Ridge 5.5 0089778977 km 160625537824-11-2020 22:02 map
46 km WNW of Aleneva, Alaska 2.2 0077157715 km 160625424524-11-2020 21:44 map
83 km S of Néa Anatolí, Greece 4.2 0025182518 km 160625308024-11-2020 21:24 map
1 km SSW of Guánica, Puerto Rico 2.0 0071617161 km 160625307924-11-2020 21:24 map
5 km ENE of Weston, Oregon 2.0 0079417941 km 160625266824-11-2020 21:17 map
20 km WNW of Stanley, Idaho 2.4 0079417941 km 160625264624-11-2020 21:17 map
34 km E of McKinley Park, Alaska 2.2 0070577057 km 160625164324-11-2020 21:00 map
11 km SSE of Guánica, Puerto Rico 2.7 0071647164 km 160625133824-11-2020 20:55 map
6 km SSW of Guánica, Puerto Rico 2.0 0071657165 km 160624660924-11-2020 19:36 map
5 km NE of Ames, Oklahoma 2.3 0077367736 km 160624566624-11-2020 19:21 map
29 km S of Knik River, Alaska 2.5 0073307330 km 160624468424-11-2020 19:04 map
66 km SSW of Chirilagua, El Salvador 4.9 0091029102 km 160624321424-11-2020 18:40 map
9 km NNW of Meadow Lakes, Alaska 2.0 0072907290 km 160624273324-11-2020 18:32 map
2 km E of Big Lake, Alaska 2.1 0073127312 km 160624255124-11-2020 18:29 map
118 km NNW of Bima, Indonesia 4.4 01232112321 km 160624242124-11-2020 18:27 map
2 km SE of Palomas, Puerto Rico 2.3 0071537153 km 160624075724-11-2020 17:59 map
6 km S of Big Lake, Alaska 2.2 0073207320 km 160623913624-11-2020 17:32 map
5 km NE of Ames, Oklahoma 2.1 0077367736 km 160623861724-11-2020 17:23 map
19 km NNE of Chacra, Colorado 2.4 0079587958 km 160623849824-11-2020 17:21 map
Volcano Islands, Japan region 5.0 01059210592 km 160623671724-11-2020 16:51 map
6 km W of Seward, Alaska 2.6 0074567456 km 160623617424-11-2020 16:42 map
29 km ESE of Pedro Bay, Alaska 2.8 0075607560 km 160623528624-11-2020 16:28 map
7 km SW of Guánica, Puerto Rico 2.2 0071667166 km 160623479024-11-2020 16:19 map
4 km S of Avard, Oklahoma 2.4 0077437743 km 160623298924-11-2020 15:49 map
36 km W of Anchor Point, Alaska 2.1 0075437543 km 160623227324-11-2020 15:37 map
36 km ESE of Mina, Nevada 2.3 0086198619 km 160622833324-11-2020 14:32 map
15 km WSW of Salamatof, Alaska 2.0 0074407440 km 160622817824-11-2020 14:29 map
2 km SSE of Houston, Alaska 2.6 0073017301 km 160622629224-11-2020 13:58 map
2 km ESE of Pāhala, Hawaii 2.0 01197911979 km 160622542824-11-2020 13:43 map
7 km S of Happy Valley, Alaska 2.2 0075157515 km 160622480924-11-2020 13:33 map
8 km E of Bancroft, Idaho 2.4 0079197919 km 160622145124-11-2020 12:37 map
11 km NNE of Stanley, Idaho 2.2 0079247924 km 160622007924-11-2020 12:14 map
14 km NNE of Fortine, Montana 2.6 0075107510 km 160621988624-11-2020 12:11 map
5 km SW of Volcano, Hawaii 2.1 01195211952 km 160621693124-11-2020 11:22 map
2 km NNW of Happy Valley, Alaska 2.4 0075067506 km 160621396324-11-2020 10:32 map
6 km NNW of Delta, B.C., MX 2.3 0090309030 km 160621263524-11-2020 10:10 map
62 km S of Glacier View, Alaska 2.2 0073037303 km 160621249224-11-2020 10:08 map
10 km WNW of El Moro, Colorado 2.2 0080228022 km 160621134824-11-2020 09:49 map
22 km ENE of Honaunau-Napoopoo, Hawaii 2.2 01195011950 km 160621043624-11-2020 09:33 map
34 km SE of Mina, Nevada 3.0 0086268626 km 160620983924-11-2020 09:23 map
32 km S of False Pass, Alaska 2.8 0082378237 km 160620903824-11-2020 09:10 map
7 km ESE of Morgan, Utah 2.0 0080628062 km 160620733324-11-2020 08:42 map
141 km NW of Amahai, Indonesia 4.9 01250812508 km 160620680724-11-2020 08:33 map
33 km SE of Mina, Nevada 3.1 0086278627 km 160620458224-11-2020 07:56 map
6 km W of Cobb, CA 2.3 0087948794 km 160619975624-11-2020 06:35 map
9 km WNW of The Geysers, CA 2.4 0087978797 km 160619937524-11-2020 06:29 map
41 km SW of Skwentna, Alaska 2.6 0073257325 km 160619894724-11-2020 06:22 map
9 km WNW of The Geysers, CA 2.2 0087978797 km 160619571024-11-2020 05:28 map
6 km SW of Progreso, B.C., MX 2.0 0090409040 km 160619562624-11-2020 05:27 map
7 km ESE of La Parguera, Puerto Rico 2.3 0071657165 km 160619531524-11-2020 05:21 map
5 km SSW of Pāhala, Hawaii 2.1 01198411984 km 160619205824-11-2020 04:27 map
24 km E of Calama, Chile 4.2 01081210812 km 160618986524-11-2020 03:51 map
33 km NE of La Horqueta (Poblado Doce), Mexico 4.5 0090819081 km 160618974024-11-2020 03:49 map
1 km NE of Guayanilla, Puerto Rico 2.1 0071457145 km 160618805924-11-2020 03:20 map
50 km W of Nikolski, Alaska 2.6 0084638463 km 160618667224-11-2020 02:57 map
39 km SE of Mina, Nevada 2.0 0086218621 km 160618349924-11-2020 02:04 map
Region Metropolitana, Chile 4.6 01189111891 km 160618228324-11-2020 01:44 map
17 km N of Pāhala, Hawaii 2.3 01196111961 km 160618059924-11-2020 01:16 map
16 km WSW of Punta Cana, Dominican Republic 3.6 0072287228 km 160617792324-11-2020 00:32 map
Guam region 5.4 01191111911 km 160617602324-11-2020 00:00 map
38 km N of Stanley, Idaho 2.1 0079077907 km 160617535223-11-2020 23:49 map
3 km SW of Indios, Puerto Rico 2.2 0071547154 km 160617522223-11-2020 23:47 map
12 km WNW of Susitna North, Alaska 2.0 0072437243 km 160617433823-11-2020 23:32 map
49 km SSE of Nelchina, Alaska 2.1 0072467246 km 160617315323-11-2020 23:12 map
123 km SSE of Perryville, Alaska 3.6 0081478147 km 160617200223-11-2020 22:53 map
43 km ESE of Central, Alaska 2.0 0068126812 km 160617050523-11-2020 22:28 map
Southeastern Alaska 4.3 0075097509 km 160616999523-11-2020 22:19 map
68 km SE of Unalaska, Alaska 4.0 0083828382 km 160616967023-11-2020 22:14 map
9 km S of Princeton, Canada 2.2 0077047704 km 160616945723-11-2020 22:10 map
48 km WNW of Abra Pampa, Argentina 4.6 01066810668 km 160616927123-11-2020 22:07 map
7 km SE of La Parguera, Puerto Rico 2.8 0071687168 km 160616925523-11-2020 22:07 map
2 km SW of San Juan Bautista, CA 2.2 0089288928 km 160616654923-11-2020 21:22 map
15 km NNW of Stanley, Idaho 2.0 0079297929 km 160616433323-11-2020 20:45 map
11 km WNW of Stanley, Idaho 2.1 0079377937 km 160616418223-11-2020 20:43 map
28 km S of Denali National Park, Alaska 2.4 0071537153 km 160616271223-11-2020 20:18 map
25 km S of Mina, Nevada 2.7 0086398639 km 160616216523-11-2020 20:09 map
87 km ENE of Ouzinkie, Alaska 2.6 0076737673 km 160615888023-11-2020 19:14 map
4 km SE of The Geysers, CA 2.1 0087988798 km 160615821523-11-2020 19:03 map
5 km S of Guánica, Puerto Rico 2.5 0071637163 km 160615758623-11-2020 18:53 map
6 km S of Volcano, Hawaii 2.1 01195311953 km 160615658123-11-2020 18:36 map
78 km SSW of Kaktovik, Alaska 2.4 0063946394 km 160615623923-11-2020 18:30 map
13 km NNW of Stanley, Idaho 2.0 0079307930 km 160615441323-11-2020 18:00 map
11 km ENE of Pāhala, Hawaii 2.3 01197311973 km 160615201723-11-2020 17:20 map
48 km NNW of Charlotte Amalie, U.S. Virgin Islands 3.4 0069676967 km 160614798623-11-2020 16:13 map
123 km E of Ust’-Kamchatsk Staryy, Russia 4.5 0079807980 km 160614602123-11-2020 15:40 map
259 km W of Adak, Alaska 3.0 0086028602 km 160614512223-11-2020 15:25 map
3 km SW of Guánica, Puerto Rico 2.1 0071627162 km 160614439923-11-2020 15:13 map
19 km NNW of Toms Place, CA 2.9 0087128712 km 160614054623-11-2020 14:09 map

532 earthquakes found. Click on location or map links for more details from the USGS


Map and data courtesy of United States Geological Survey

Script developed by  Saratoga-weather.org Adapted for the template by  Weerstation Leuven (version 3.21)

This is an optional block. Switch it on/off in your settings-file: $SITE['bannerTop'] = false; or $SITE['bannerBottom'] = false;

You can display ads, any other important text or photo’s using text / html or PHP code.

You can place one or more at the top and or bottom and it can all be different for content / size .